createdAt,value
2017-08-09T00:01:04.321Z,71.30
2017-08-09T00:03:31.852Z,71.30
2017-08-09T00:06:01.077Z,71.40
2017-08-09T00:08:34.437Z,71.40
2017-08-09T00:11:01.924Z,71.50
2017-08-09T00:13:29.431Z,71.50
2017-08-09T00:15:56.970Z,71.50
2017-08-09T00:18:24.473Z,71.50
2017-08-09T00:20:52.790Z,71.40
2017-08-09T00:23:20.295Z,71.40
2017-08-09T00:25:47.780Z,71.40
2017-08-09T00:28:15.321Z,71.50
2017-08-09T00:30:42.811Z,71.50
2017-08-09T00:33:10.303Z,71.60
2017-08-09T00:35:37.820Z,71.70
2017-08-09T00:38:05.312Z,71.70
2017-08-09T00:40:32.845Z,71.60
2017-08-09T00:43:00.336Z,71.40
2017-08-09T00:45:27.829Z,71.40
2017-08-09T00:47:56.114Z,70.90
2017-08-09T00:50:23.614Z,70.90
2017-08-09T00:52:51.154Z,70.70
2017-08-09T00:55:18.652Z,70.60
2017-08-09T00:57:46.144Z,70.70
2017-08-09T01:00:13.665Z,70.60
2017-08-09T01:02:41.175Z,70.60
2017-08-09T01:05:08.668Z,70.60
2017-08-09T01:07:36.189Z,70.70
2017-08-09T01:10:03.683Z,70.60
2017-08-09T01:12:31.188Z,70.70
2017-08-09T01:14:58.753Z,70.90
2017-08-09T01:17:26.245Z,70.90
2017-08-09T01:19:53.738Z,71.00
2017-08-09T01:22:22.042Z,71.10
2017-08-09T01:24:49.538Z,71.10
2017-08-09T01:27:17.038Z,71.10
2017-08-09T01:29:44.582Z,71.20
2017-08-09T01:32:12.081Z,71.20
2017-08-09T01:34:39.567Z,71.20
2017-08-09T01:37:07.110Z,71.10
2017-08-09T01:39:34.600Z,71.10
2017-08-09T01:42:02.859Z,71.10
2017-08-09T01:44:30.380Z,70.90
2017-08-09T01:46:57.894Z,71.10
2017-08-09T01:49:26.194Z,71.00
2017-08-09T01:51:53.694Z,71.00
2017-08-09T01:54:21.241Z,71.10
2017-08-09T01:56:48.732Z,71.10
2017-08-09T01:59:16.221Z,71.00
2017-08-09T02:01:43.768Z,71.00
2017-08-09T02:04:11.257Z,71.10
2017-08-09T02:06:38.751Z,71.10
2017-08-09T02:09:06.507Z,71.10
2017-08-09T02:11:34.034Z,71.10
2017-08-09T02:14:01.577Z,71.10
2017-08-09T02:16:29.077Z,71.20
2017-08-09T02:18:56.994Z,71.10
2017-08-09T02:21:24.520Z,71.20
2017-08-09T02:23:52.828Z,71.10
2017-08-09T02:26:20.320Z,71.10
2017-08-09T02:28:47.826Z,71.20
2017-08-09T02:31:15.364Z,71.10
2017-08-09T02:33:43.617Z,70.60
2017-08-09T02:36:11.100Z,71.00
2017-08-09T02:38:39.405Z,70.90
2017-08-09T02:41:06.901Z,70.90
2017-08-09T02:43:34.393Z,70.80
2017-08-09T02:46:02.687Z,70.60
2017-08-09T02:48:30.184Z,70.60
2017-08-09T02:50:57.672Z,70.60
2017-08-09T02:53:25.205Z,70.40
2017-08-09T02:55:52.706Z,70.40
2017-08-09T02:58:20.237Z,70.30
2017-08-09T03:00:47.730Z,70.40
2017-08-09T03:03:15.229Z,70.20
2017-08-09T03:05:42.770Z,70.20
2017-08-09T03:08:16.074Z,70.10
2017-08-09T03:10:43.602Z,70.00
2017-08-09T03:13:11.084Z,70.10
2017-08-09T03:15:38.571Z,70.00
2017-08-09T03:18:06.083Z,70.20
2017-08-09T03:20:33.603Z,70.30
2017-08-09T03:23:01.851Z,70.30
2017-08-09T03:25:29.365Z,70.30
2017-08-09T03:27:56.849Z,70.40
2017-08-09T03:30:24.373Z,70.40
2017-08-09T03:32:51.867Z,70.50
2017-08-09T03:35:19.365Z,70.60
2017-08-09T03:37:47.688Z,70.50
2017-08-09T03:40:15.171Z,70.50
2017-08-09T03:42:42.655Z,70.50
2017-08-09T03:45:10.163Z,70.60
2017-08-09T03:47:37.724Z,70.60
2017-08-09T03:50:05.211Z,70.60
2017-08-09T03:52:33.455Z,70.80
2017-08-09T03:55:01.012Z,70.70
2017-08-09T03:57:28.490Z,70.70
2017-08-09T03:59:55.975Z,70.80
2017-08-09T04:02:23.473Z,70.80
2017-08-09T04:04:50.950Z,70.90
2017-08-09T04:07:18.475Z,70.90
2017-08-09T04:09:45.959Z,71.00
2017-08-09T04:12:13.668Z,71.00
2017-08-09T04:14:41.185Z,71.10
2017-08-09T04:17:08.666Z,71.20
2017-08-09T04:19:36.906Z,71.30
2017-08-09T04:22:04.430Z,71.20
2017-08-09T04:24:31.912Z,71.20
2017-08-09T04:26:59.395Z,71.20
2017-08-09T04:29:26.920Z,71.40
2017-08-09T04:31:54.402Z,71.40
2017-08-09T04:34:21.886Z,71.50
2017-08-09T04:36:49.401Z,71.50
2017-08-09T04:39:16.888Z,71.50
2017-08-09T04:41:45.162Z,71.50
2017-08-09T04:44:13.413Z,71.50
2017-08-09T04:46:40.947Z,71.50
2017-08-09T04:49:08.436Z,71.40
2017-08-09T04:51:35.907Z,71.40
2017-08-09T04:54:04.199Z,71.40
2017-08-09T04:56:31.687Z,71.40
2017-08-09T04:58:59.179Z,71.40
2017-08-09T05:01:26.721Z,71.40
2017-08-09T05:03:54.206Z,71.40
2017-08-09T05:06:22.466Z,71.40
2017-08-09T05:08:49.974Z,71.30
2017-08-09T05:11:17.490Z,71.40
2017-08-09T05:13:45.741Z,71.20
2017-08-09T05:16:13.223Z,71.20
2017-08-09T05:18:41.483Z,71.30
2017-08-09T05:21:08.972Z,71.30
2017-08-09T05:23:36.485Z,71.30
2017-08-09T05:26:04.736Z,71.40
2017-08-09T05:28:32.258Z,71.70
2017-08-09T05:30:59.751Z,71.50
2017-08-09T05:33:27.232Z,71.50
2017-08-09T05:35:54.749Z,71.40
2017-08-09T05:38:22.355Z,71.40
2017-08-09T05:40:50.616Z,71.30
2017-08-09T05:43:18.123Z,71.20
2017-08-09T05:45:45.661Z,71.30
2017-08-09T05:48:13.142Z,71.20
2017-08-09T05:50:40.651Z,71.30
2017-08-09T05:53:08.189Z,71.30
2017-08-09T05:55:35.684Z,71.20
2017-08-09T05:58:03.931Z,71.20
2017-08-09T06:00:31.434Z,71.20
2017-08-09T06:02:58.912Z,71.20
2017-08-09T06:05:26.407Z,71.10
2017-08-09T06:07:53.920Z,71.10
2017-08-09T06:10:21.403Z,71.10
2017-08-09T06:12:48.909Z,71.00
2017-08-09T06:15:17.170Z,71.00
2017-08-09T06:17:44.703Z,70.90
2017-08-09T06:20:12.196Z,70.90
2017-08-09T06:22:40.488Z,70.90
2017-08-09T06:25:07.967Z,70.90
2017-08-09T06:27:35.450Z,70.80
2017-08-09T06:30:02.959Z,70.80
2017-08-09T06:32:30.460Z,70.70
2017-08-09T06:34:57.984Z,70.60
2017-08-09T06:37:25.470Z,70.60
2017-08-09T06:39:52.995Z,70.60
2017-08-09T06:42:20.524Z,70.50
2017-08-09T06:44:48.011Z,70.10
2017-08-09T06:47:15.500Z,69.60
2017-08-09T06:49:43.032Z,69.70
2017-08-09T06:52:10.519Z,69.60
2017-08-09T06:54:38.007Z,69.70
2017-08-09T06:57:06.307Z,69.50
2017-08-09T06:59:33.870Z,69.50
2017-08-09T07:02:01.351Z,69.60
2017-08-09T07:04:28.855Z,69.30
2017-08-09T07:06:56.347Z,69.10
2017-08-09T07:09:23.876Z,69.00
2017-08-09T07:11:51.370Z,68.80
2017-08-09T07:14:18.856Z,68.60
2017-08-09T07:16:46.408Z,68.60
2017-08-09T07:19:13.895Z,68.70
2017-08-09T07:21:42.148Z,68.90
2017-08-09T07:24:09.679Z,68.20
2017-08-09T07:26:37.165Z,68.30
2017-08-09T07:29:04.648Z,68.10
2017-08-09T07:31:32.163Z,68.10
2017-08-09T07:33:59.650Z,68.10
2017-08-09T07:36:27.174Z,67.80
2017-08-09T07:38:54.655Z,67.50
2017-08-09T07:41:22.909Z,67.50
2017-08-09T07:43:50.479Z,67.50
2017-08-09T07:46:17.967Z,67.60
2017-08-09T07:48:45.461Z,67.60
2017-08-09T07:51:12.976Z,67.70
2017-08-09T07:53:40.462Z,67.50
2017-08-09T07:56:07.980Z,67.80
2017-08-09T07:58:35.469Z,68.00
2017-08-09T08:01:02.979Z,68.00
2017-08-09T08:03:30.484Z,67.70
2017-08-09T08:05:57.972Z,67.60
2017-08-09T08:08:25.496Z,67.60
2017-08-09T08:10:52.976Z,67.60
2017-08-09T08:13:20.466Z,67.60
2017-08-09T08:15:48.744Z,67.20
2017-08-09T08:18:16.991Z,66.90
2017-08-09T08:20:44.505Z,66.80
2017-08-09T08:23:11.991Z,66.80
2017-08-09T08:25:39.471Z,66.80
2017-08-09T08:28:06.975Z,66.60
2017-08-09T08:30:34.459Z,66.50
2017-08-09T08:33:01.975Z,66.40
2017-08-09T08:35:29.476Z,66.00
2017-08-09T08:37:56.960Z,66.00
2017-08-09T08:40:24.466Z,66.00
2017-08-09T08:42:51.955Z,66.00
2017-08-09T08:45:19.578Z,66.10
2017-08-09T08:47:47.057Z,66.00
2017-08-09T08:50:14.539Z,66.20
2017-08-09T08:52:42.054Z,66.30
2017-08-09T08:55:09.535Z,66.10
2017-08-09T08:57:37.052Z,66.10
2017-08-09T09:00:04.533Z,66.00
2017-08-09T09:02:32.015Z,66.10
2017-08-09T09:04:59.539Z,66.20
2017-08-09T09:07:27.020Z,66.20
2017-08-09T09:09:54.504Z,66.30
2017-08-09T09:12:22.784Z,66.00
2017-08-09T09:14:51.047Z,65.90
2017-08-09T09:17:18.538Z,65.90
2017-08-09T09:19:46.147Z,65.80
2017-08-09T09:22:13.632Z,65.80
2017-08-09T09:24:41.883Z,65.60
2017-08-09T09:27:09.392Z,65.60
2017-08-09T09:29:36.891Z,65.40
2017-08-09T09:32:04.399Z,65.20
2017-08-09T09:34:31.883Z,65.00
2017-08-09T09:36:59.424Z,65.10
2017-08-09T09:39:26.905Z,65.20
2017-08-09T09:41:54.386Z,65.00
2017-08-09T09:44:21.886Z,64.60
2017-08-09T09:46:49.370Z,63.80
2017-08-09T09:49:16.859Z,64.10
2017-08-09T09:51:45.151Z,64.20
2017-08-09T09:54:12.637Z,63.60
2017-08-09T09:56:40.124Z,63.80
2017-08-09T09:59:07.632Z,64.00
2017-08-09T10:01:35.120Z,64.10
2017-08-09T10:04:02.728Z,64.30
2017-08-09T10:06:30.971Z,64.50
2017-08-09T10:08:58.451Z,64.40
2017-08-09T10:11:25.967Z,64.50
2017-08-09T10:13:53.457Z,64.60
2017-08-09T10:16:20.975Z,64.50
2017-08-09T10:18:48.496Z,64.40
2017-08-09T10:21:16.035Z,64.50
2017-08-09T10:23:43.623Z,64.70
2017-08-09T10:26:11.180Z,64.30
2017-08-09T10:28:38.696Z,64.80
2017-08-09T10:31:06.220Z,64.90
2017-08-09T10:33:33.698Z,65.00
2017-08-09T10:36:01.178Z,65.10
2017-08-09T10:38:29.130Z,65.00
2017-08-09T10:40:56.624Z,65.00
2017-08-09T10:43:24.128Z,65.00
2017-08-09T10:45:51.623Z,64.90
2017-08-09T10:48:19.918Z,65.00
2017-08-09T10:50:47.453Z,65.00
2017-08-09T10:53:14.968Z,65.00
2017-08-09T10:55:42.507Z,65.00
2017-08-09T10:58:09.999Z,65.10
2017-08-09T11:00:38.292Z,65.20
2017-08-09T11:03:06.230Z,65.20
2017-08-09T11:05:35.002Z,65.40
2017-08-09T11:08:03.600Z,65.10
2017-08-09T11:10:31.903Z,65.10
2017-08-09T11:13:00.188Z,65.60
2017-08-09T11:15:28.463Z,65.00
2017-08-09T11:17:56.015Z,65.00
2017-08-09T11:20:23.503Z,65.00
2017-08-09T11:22:50.995Z,65.00
2017-08-09T11:25:18.539Z,65.00
2017-08-09T11:27:46.018Z,64.90
2017-08-09T11:30:13.504Z,64.70
2017-08-09T11:32:41.047Z,64.70
2017-08-09T11:35:08.535Z,65.30
2017-08-09T11:37:36.028Z,64.80
2017-08-09T11:40:03.577Z,64.80
2017-08-09T11:42:31.097Z,64.90
2017-08-09T11:44:58.615Z,64.90
2017-08-09T11:47:26.179Z,65.00
2017-08-09T11:49:53.680Z,65.10
2017-08-09T11:52:21.166Z,65.00
2017-08-09T11:54:48.684Z,65.20
2017-08-09T11:57:16.211Z,65.10
2017-08-09T11:59:43.711Z,65.10
2017-08-09T12:02:11.212Z,65.10
2017-08-09T12:04:38.780Z,65.10
2017-08-09T12:07:06.291Z,65.10
2017-08-09T12:09:33.835Z,65.10
2017-08-09T12:12:01.325Z,65.20
2017-08-09T12:14:28.827Z,65.20
2017-08-09T12:16:57.140Z,65.10
2017-08-09T12:19:24.663Z,65.00
2017-08-09T12:21:52.972Z,65.00
2017-08-09T12:24:20.495Z,64.80
2017-08-09T12:26:48.784Z,64.80
2017-08-09T12:29:16.300Z,64.80
2017-08-09T12:31:43.830Z,64.50
2017-08-09T12:34:11.396Z,64.30
2017-08-09T12:36:38.894Z,64.30
2017-08-09T12:39:07.152Z,63.70
2017-08-09T12:41:34.691Z,63.70
2017-08-09T12:44:02.183Z,63.90
2017-08-09T12:46:30.455Z,63.90
2017-08-09T12:48:57.994Z,63.90
2017-08-09T12:51:25.595Z,63.80
2017-08-09T12:53:53.185Z,63.60
2017-08-09T12:56:20.997Z,63.10
2017-08-09T12:58:49.256Z,63.70
2017-08-09T13:01:16.759Z,63.10
2017-08-09T13:03:44.270Z,62.90
2017-08-09T13:06:11.792Z,63.50
2017-08-09T13:08:39.272Z,62.70
2017-08-09T13:11:06.760Z,62.70
2017-08-09T13:13:35.043Z,62.80
2017-08-09T13:16:03.300Z,62.70
2017-08-09T13:18:31.580Z,63.00
2017-08-09T13:20:59.080Z,62.90
2017-08-09T13:23:26.610Z,63.10
2017-08-09T13:25:54.090Z,63.10
2017-08-09T13:28:21.605Z,63.30
2017-08-09T13:30:49.896Z,63.20
2017-08-09T13:33:17.393Z,63.20
2017-08-09T13:35:44.876Z,63.30
2017-08-09T13:38:12.402Z,63.30
2017-08-09T13:40:39.878Z,63.30
2017-08-09T13:43:07.400Z,63.20
2017-08-09T13:45:34.880Z,63.20
2017-08-09T13:48:02.359Z,63.30
2017-08-09T13:50:29.875Z,63.40
2017-08-09T13:52:57.349Z,63.40
2017-08-09T13:55:24.882Z,63.10
2017-08-09T13:57:52.374Z,63.20
2017-08-09T14:00:19.890Z,63.00
2017-08-09T14:02:47.416Z,63.00
2017-08-09T14:05:15.719Z,63.20
2017-08-09T14:07:43.203Z,63.00
2017-08-09T14:10:10.691Z,63.20
2017-08-09T14:12:38.208Z,63.10
2017-08-09T14:15:05.728Z,63.70
2017-08-09T14:17:34.017Z,63.60
2017-08-09T14:20:01.505Z,63.50
2017-08-09T14:22:34.827Z,63.40
2017-08-09T14:25:02.313Z,63.50
2017-08-09T14:27:30.570Z,63.70
2017-08-09T14:29:58.850Z,63.10
2017-08-09T14:32:27.145Z,63.70
2017-08-09T14:34:54.627Z,63.50
2017-08-09T14:37:22.115Z,63.70
2017-08-09T14:39:50.427Z,63.90
2017-08-09T14:42:17.952Z,63.80
2017-08-09T14:44:45.442Z,63.90
2017-08-09T14:47:13.687Z,64.10
2017-08-09T14:49:41.202Z,64.10
2017-08-09T14:52:08.689Z,64.30
2017-08-09T14:54:36.227Z,64.30
2017-08-09T14:57:03.713Z,64.40
2017-08-09T14:59:31.232Z,64.30
2017-08-09T15:01:58.712Z,64.30
2017-08-09T15:04:26.197Z,64.60
2017-08-09T15:06:54.474Z,64.70
2017-08-09T15:09:21.972Z,64.70
2017-08-09T15:11:49.482Z,64.80
2017-08-09T15:14:16.990Z,64.80
2017-08-09T15:16:44.474Z,64.70
2017-08-09T15:19:12.024Z,64.70
2017-08-09T15:21:39.516Z,64.80
2017-08-09T15:24:07.005Z,64.80
2017-08-09T15:26:34.522Z,65.00
2017-08-09T15:29:02.775Z,66.00
2017-08-09T15:31:30.253Z,65.20
2017-08-09T15:33:57.816Z,65.20
2017-08-09T15:36:26.073Z,65.40
2017-08-09T15:38:53.568Z,65.40
2017-08-09T15:41:21.071Z,65.50
2017-08-09T15:43:48.555Z,65.50
2017-08-09T15:46:16.841Z,66.10
2017-08-09T15:48:45.095Z,65.40
2017-08-09T15:51:12.611Z,65.40
2017-08-09T15:53:40.105Z,65.40
2017-08-09T15:56:07.595Z,65.30
2017-08-09T15:58:35.396Z,65.30
2017-08-09T16:01:02.897Z,65.20
2017-08-09T16:03:31.147Z,65.30
2017-08-09T16:05:58.703Z,65.20
2017-08-09T16:08:26.189Z,65.40
2017-08-09T16:10:54.435Z,65.30
2017-08-09T16:13:21.968Z,65.20
2017-08-09T16:15:49.468Z,65.20
2017-08-09T16:18:16.951Z,65.20
2017-08-09T16:20:44.482Z,65.20
2017-08-09T16:23:12.735Z,65.30
2017-08-09T16:25:40.220Z,64.80
2017-08-09T16:28:08.508Z,65.00
2017-08-09T16:30:36.013Z,65.00
2017-08-09T16:33:03.520Z,64.80
2017-08-09T16:35:31.010Z,64.90
2017-08-09T16:37:58.539Z,64.80
2017-08-09T16:40:26.070Z,64.70
2017-08-09T16:42:53.551Z,64.70
2017-08-09T16:45:21.075Z,64.80
2017-08-09T16:47:48.555Z,64.60
2017-08-09T16:50:16.039Z,64.60
2017-08-09T16:52:43.558Z,64.60
2017-08-09T16:55:11.043Z,64.60
2017-08-09T16:57:38.520Z,64.50
2017-08-09T17:00:06.038Z,64.50
2017-08-09T17:02:34.323Z,64.50
2017-08-09T17:05:01.805Z,64.40
2017-08-09T17:07:29.363Z,64.30
2017-08-09T17:09:56.859Z,64.30
2017-08-09T17:12:24.397Z,64.20
2017-08-09T17:14:51.886Z,64.00
2017-08-09T17:17:19.374Z,64.00
2017-08-09T17:19:46.904Z,64.10
2017-08-09T17:22:15.165Z,64.30
2017-08-09T17:24:42.648Z,64.20
2017-08-09T17:27:10.928Z,64.30
2017-08-09T17:29:38.444Z,64.30
2017-08-09T17:32:05.932Z,64.30
2017-08-09T17:34:34.245Z,64.20
2017-08-09T17:37:01.744Z,64.20
2017-08-09T17:39:29.224Z,64.20
2017-08-09T17:41:57.504Z,64.10
2017-08-09T17:44:25.028Z,64.00
2017-08-09T17:46:52.545Z,63.90
2017-08-09T17:49:20.028Z,63.90
2017-08-09T17:51:47.553Z,64.00
2017-08-09T17:54:15.067Z,64.10
2017-08-09T17:56:43.348Z,64.10
2017-08-09T17:59:11.643Z,64.30
2017-08-09T18:01:39.133Z,64.10
2017-08-09T18:04:06.618Z,64.10
2017-08-09T18:06:34.136Z,64.10
2017-08-09T18:09:01.839Z,63.90
2017-08-09T18:11:29.962Z,64.20
2017-08-09T18:13:57.624Z,64.10
2017-08-09T18:16:25.665Z,64.00
2017-08-09T18:18:53.240Z,64.20
2017-08-09T18:21:20.714Z,64.40
2017-08-09T18:23:48.198Z,64.50
2017-08-09T18:26:15.704Z,64.60
2017-08-09T18:28:43.187Z,64.60
2017-08-09T18:31:10.696Z,64.60
2017-08-09T18:33:38.963Z,64.60
2017-08-09T18:36:07.220Z,64.50
2017-08-09T18:38:34.736Z,64.50
2017-08-09T18:41:02.219Z,64.30
2017-08-09T18:43:29.753Z,64.30
2017-08-09T18:45:57.238Z,64.50
2017-08-09T18:48:24.720Z,64.60
2017-08-09T18:50:52.996Z,65.00
2017-08-09T18:53:21.244Z,65.10
2017-08-09T18:55:48.769Z,65.00
2017-08-09T18:58:16.250Z,65.20
2017-08-09T19:00:43.734Z,65.40
2017-08-09T19:03:11.245Z,65.60
2017-08-09T19:05:38.730Z,65.70
2017-08-09T19:08:06.247Z,65.90
2017-08-09T19:10:33.759Z,66.00
2017-08-09T19:13:01.249Z,66.20
2017-08-09T19:15:28.787Z,66.40
2017-08-09T19:17:56.275Z,66.60
2017-08-09T19:20:23.756Z,66.80
2017-08-09T19:22:51.279Z,66.90
2017-08-09T19:25:18.760Z,67.00
2017-08-09T19:27:46.247Z,67.10
2017-08-09T19:30:13.752Z,67.10
2017-08-09T19:32:41.230Z,67.10
2017-08-09T19:35:08.744Z,67.20
2017-08-09T19:37:36.992Z,67.50
2017-08-09T19:40:04.534Z,67.40
2017-08-09T19:42:32.021Z,67.50
2017-08-09T19:45:00.269Z,67.70
2017-08-09T19:47:27.775Z,67.70
2017-08-09T19:49:55.263Z,67.90
2017-08-09T19:52:22.758Z,68.00
2017-08-09T19:54:50.248Z,68.10
2017-08-09T19:57:17.755Z,68.10
2017-08-09T19:59:45.236Z,68.10
2017-08-09T20:02:13.531Z,68.20
2017-08-09T20:04:41.018Z,68.10
2017-08-09T20:07:08.565Z,68.30
2017-08-09T20:09:36.088Z,68.50
2017-08-09T20:12:04.341Z,69.00
2017-08-09T20:14:31.822Z,68.90
2017-08-09T20:17:00.095Z,69.50
2017-08-09T20:19:28.386Z,69.90
2017-08-09T20:21:55.871Z,69.80
2017-08-09T20:24:23.356Z,70.10
2017-08-09T20:26:50.884Z,70.30
2017-08-09T20:29:18.372Z,70.40
2017-08-09T20:31:45.846Z,70.60
2017-08-09T20:34:14.127Z,71.00
2017-08-09T20:36:41.633Z,71.00
2017-08-09T20:39:09.179Z,71.20
2017-08-09T20:41:36.690Z,71.40
2017-08-09T20:44:04.935Z,71.80
2017-08-09T20:46:32.469Z,71.70
2017-08-09T20:48:59.951Z,72.00
2017-08-09T20:51:27.478Z,72.10
2017-08-09T20:53:54.956Z,72.30
2017-08-09T20:56:22.443Z,72.50
2017-08-09T20:58:49.951Z,72.50
2017-08-09T21:01:17.428Z,72.60
2017-08-09T21:03:44.993Z,72.70
2017-08-09T21:06:12.489Z,72.80
2017-08-09T21:08:39.979Z,72.90
2017-08-09T21:11:07.499Z,73.10
2017-08-09T21:13:34.980Z,73.20
2017-08-09T21:16:02.471Z,73.30
2017-08-09T21:18:29.963Z,73.40
2017-08-09T21:20:58.214Z,73.50
2017-08-09T21:23:25.736Z,73.40
2017-08-09T21:25:53.233Z,73.50
2017-08-09T21:28:21.120Z,73.60
2017-08-09T21:30:49.372Z,73.60
2017-08-09T21:33:16.855Z,73.60
2017-08-09T21:35:45.136Z,73.60
2017-08-09T21:38:12.616Z,73.50
2017-08-09T21:40:40.143Z,73.60
2017-08-09T21:43:08.479Z,73.70
2017-08-09T21:45:35.992Z,73.70
2017-08-09T21:48:03.471Z,73.80
2017-08-09T21:50:30.963Z,73.90
2017-08-09T21:52:58.499Z,74.10
2017-08-09T21:55:25.991Z,74.10
2017-08-09T21:57:54.239Z,74.20
2017-08-09T22:00:21.756Z,74.10
2017-08-09T22:02:49.243Z,74.20
2017-08-09T22:05:16.731Z,74.20
2017-08-09T22:07:45.025Z,74.30
2017-08-09T22:10:12.511Z,74.30
2017-08-09T22:12:39.987Z,74.40
2017-08-09T22:15:07.504Z,74.40
2017-08-09T22:17:35.038Z,74.50
2017-08-09T22:20:03.292Z,74.50
2017-08-09T22:22:30.777Z,74.50
2017-08-09T22:24:58.292Z,74.50
2017-08-09T22:27:25.779Z,74.50
2017-08-09T22:29:54.070Z,74.70
2017-08-09T22:32:21.550Z,74.70
2017-08-09T22:34:49.031Z,74.70
2017-08-09T22:37:16.558Z,74.60
2017-08-09T22:39:44.035Z,74.70
2017-08-09T22:42:11.564Z,74.80
2017-08-09T22:44:39.082Z,74.80
2017-08-09T22:47:06.571Z,74.90
2017-08-09T22:49:34.055Z,74.90
2017-08-09T22:52:01.575Z,74.90
2017-08-09T22:54:29.821Z,75.00
2017-08-09T22:56:57.303Z,75.00
2017-08-09T22:59:25.591Z,75.10
2017-08-09T23:01:53.071Z,75.10
2017-08-09T23:04:20.550Z,75.20
2017-08-09T23:06:48.068Z,75.10
2017-08-09T23:09:15.548Z,75.20
2017-08-09T23:11:43.046Z,75.30
2017-08-09T23:14:10.599Z,75.30
2017-08-09T23:16:38.086Z,75.30
2017-08-09T23:19:06.730Z,75.40
2017-08-09T23:21:34.232Z,75.30
2017-08-09T23:24:01.723Z,75.30
2017-08-09T23:26:29.239Z,75.40
2017-08-09T23:28:57.953Z,75.30
2017-08-09T23:31:25.438Z,75.40
2017-08-09T23:33:52.963Z,75.50
2017-08-09T23:36:20.447Z,75.50
2017-08-09T23:38:47.928Z,75.30
2017-08-09T23:41:15.448Z,75.30
2017-08-09T23:43:42.931Z,75.40
2017-08-09T23:46:10.440Z,75.40
2017-08-09T23:48:37.921Z,75.50
2017-08-09T23:51:05.449Z,75.50
2017-08-09T23:53:32.929Z,75.60
2017-08-09T23:56:00.411Z,75.60
2017-08-09T23:58:27.946Z,75.60
